Strona główna
METAR-TAF:

METAR-TAF

Lotnisko :

Koksijde, Belgia

Szerokość geograficzna: 51-05N, Długość geograficzna: 002-39E, wysokość: 4 m

Aktualna obserwacja pogody

Raport powstał 35 minut temu, godzina 01:55 UTC
Wiatr 5 kt od południowy zachód
Temperatura 13°C
Wilgotność 94%
Ciśnienie 1013 hPa
Widzialność: 5000 m

METAR: EBFN 190155Z AUTO 22005KT 5000 NCD 13/12 Q1013 WHT

czas: 04:30 (02:30 UTC)

Prognoza

Raport powstał 10 godziny i 49 minut temu, godzina 15:41 UTC
Prognoza ważna od 18 godzina 19 UTC do 19 godzina 07 UTC
Wiatr 10 kt od południowy zachód
Widzialność 10 km lub więcej
Rozproszone chmury na wysokości 2500 ft
Przerywane chmury na wysokości 12000 ft

TAF: EBFN 181541Z 1819/1907 23010KT 9999 SCT025 BKN120

Obserwacja i prognoza pogody dla ponad 4000 lotnisk (raport METAR i TAF).

Dostępne stacje oznaczono żółtymi i czerwonymi punktami na mapie.

Najedź kursorem aby zobaczyć nazwę stacji.

Kliknij aby zobaczyć obserwacje i prognozy pogody.

Aby zmienić mapę: kliknij na zielony przycisk z czarnym krzyżykiem, aby powiększyć; na zielony przycisk z myślnikiem, aby pomniejszyć; na zielone strzałki, aby przejść do map sąsiednich.


METAR-TAF: